createdAt,value
2022-08-20T00:01:17.194Z,100.00
2022-08-20T00:03:50.149Z,100.00
2022-08-20T00:06:24.022Z,100.00
2022-08-20T00:08:51.906Z,100.00
2022-08-20T00:11:25.394Z,100.00
2022-08-20T00:13:57.765Z,100.00
2022-08-20T00:16:32.539Z,100.00
2022-08-20T00:19:01.954Z,100.00
2022-08-20T00:21:29.536Z,100.00
2022-08-20T00:23:59.652Z,100.00
2022-08-20T00:26:27.499Z,100.00
2022-08-20T00:28:55.090Z,100.00
2022-08-20T00:31:24.715Z,100.00
2022-08-20T00:33:53.262Z,100.00
2022-08-20T00:36:22.130Z,100.00
2022-08-20T00:39:00.712Z,100.00
2022-08-20T00:41:29.130Z,100.00
2022-08-20T00:44:21.966Z,100.00
2022-08-20T00:46:50.296Z,100.00
2022-08-20T00:49:29.180Z,100.00
2022-08-20T00:52:14.276Z,100.00
2022-08-20T00:54:55.358Z,100.00
2022-08-20T00:58:01.426Z,100.00
2022-08-20T01:00:38.325Z,100.00
2022-08-20T01:03:09.992Z,100.00
2022-08-20T01:05:40.674Z,100.00
2022-08-20T01:08:09.395Z,100.00
2022-08-20T01:10:41.330Z,100.00
2022-08-20T01:13:15.985Z,100.00
2022-08-20T01:15:47.207Z,100.00
2022-08-20T01:18:20.776Z,100.00
2022-08-20T01:20:57.866Z,100.00
2022-08-20T01:23:49.719Z,100.00
2022-08-20T01:26:29.408Z,100.00
2022-08-20T01:29:08.067Z,100.00
2022-08-20T01:31:38.790Z,100.00
2022-08-20T01:34:11.729Z,100.00
2022-08-20T01:36:52.592Z,100.00
2022-08-20T01:39:28.285Z,100.00
2022-08-20T01:42:31.225Z,100.00
2022-08-20T01:44:58.530Z,100.00
2022-08-20T01:47:33.674Z,100.00
2022-08-20T01:50:24.794Z,100.00
2022-08-20T01:53:33.598Z,100.00
2022-08-20T01:56:08.196Z,100.00
2022-08-20T01:58:39.805Z,100.00
2022-08-20T02:01:07.222Z,100.00
2022-08-20T02:03:38.766Z,100.00
2022-08-20T02:06:07.231Z,100.00
2022-08-20T02:08:34.553Z,100.00
2022-08-20T02:11:02.408Z,100.00
2022-08-20T02:13:29.659Z,100.00
2022-08-20T02:15:56.945Z,100.00
2022-08-20T02:18:24.801Z,100.00
2022-08-20T02:20:52.834Z,100.00
2022-08-20T02:23:20.607Z,100.00
2022-08-20T02:25:48.784Z,100.00
2022-08-20T02:28:19.947Z,100.00
2022-08-20T02:30:53.495Z,100.00
2022-08-20T02:33:24.310Z,100.00
2022-08-20T02:35:56.530Z,100.00
2022-08-20T02:38:25.158Z,100.00
2022-08-20T02:40:53.087Z,100.00
2022-08-20T02:43:21.679Z,100.00
2022-08-20T02:45:49.220Z,100.00
2022-08-20T02:48:21.330Z,100.00
2022-08-20T02:50:58.553Z,100.00
2022-08-20T02:53:28.424Z,100.00
2022-08-20T02:55:56.919Z,100.00
2022-08-20T02:58:24.379Z,100.00
2022-08-20T03:00:51.913Z,100.00
2022-08-20T03:03:22.668Z,100.00
2022-08-20T03:05:57.743Z,100.00
2022-08-20T03:08:26.998Z,100.00
2022-08-20T03:10:54.395Z,100.00
2022-08-20T03:13:23.317Z,100.00
2022-08-20T03:15:58.807Z,100.00
2022-08-20T03:18:36.573Z,100.00
2022-08-20T03:21:06.065Z,100.00
2022-08-20T03:23:34.262Z,100.00
2022-08-20T03:26:12.444Z,100.00
2022-08-20T03:28:41.499Z,100.00
2022-08-20T03:31:08.998Z,100.00
2022-08-20T03:33:39.388Z,100.00
2022-08-20T03:36:22.277Z,100.00
2022-08-20T03:39:03.834Z,100.00
2022-08-20T03:41:32.268Z,100.00
2022-08-20T03:43:59.577Z,100.00
2022-08-20T03:46:26.967Z,100.00
2022-08-20T03:48:59.501Z,100.00
2022-08-20T03:51:56.042Z,100.00
2022-08-20T03:54:20.684Z,100.00
2022-08-20T03:56:48.087Z,100.00
2022-08-20T03:59:15.435Z,100.00
2022-08-20T04:01:46.167Z,100.00
2022-08-20T04:04:15.063Z,100.00
2022-08-20T04:06:43.776Z,100.00
2022-08-20T04:09:12.310Z,100.00
2022-08-20T04:11:41.540Z,100.00
2022-08-20T04:14:11.065Z,100.00
2022-08-20T04:16:40.554Z,100.00
2022-08-20T04:19:08.892Z,100.00
2022-08-20T04:21:36.825Z,100.00
2022-08-20T04:24:06.166Z,100.00
2022-08-20T04:26:37.398Z,100.00
2022-08-20T04:29:05.249Z,100.00
2022-08-20T04:31:35.487Z,100.00
2022-08-20T04:34:08.085Z,100.00
2022-08-20T04:36:35.639Z,100.00
2022-08-20T04:39:04.088Z,100.00
2022-08-20T04:41:31.436Z,100.00
2022-08-20T04:43:58.778Z,100.00
2022-08-20T04:46:28.882Z,100.00
2022-08-20T04:48:57.740Z,100.00
2022-08-20T04:51:25.627Z,100.00
2022-08-20T04:53:56.495Z,100.00
2022-08-20T04:56:27.278Z,100.00
2022-08-20T04:58:58.398Z,100.00
2022-08-20T05:01:26.910Z,100.00
2022-08-20T05:03:55.855Z,100.00
2022-08-20T05:06:31.927Z,100.00
2022-08-20T05:09:00.920Z,100.00
2022-08-20T05:11:35.913Z,100.00
2022-08-20T05:14:09.702Z,100.00
2022-08-20T05:16:41.084Z,100.00
2022-08-20T05:19:12.032Z,100.00
2022-08-20T05:21:40.542Z,100.00
2022-08-20T05:24:08.405Z,100.00
2022-08-20T05:26:36.433Z,100.00
2022-08-20T05:29:05.603Z,100.00
2022-08-20T05:31:34.895Z,100.00
2022-08-20T05:34:11.098Z,100.00
2022-08-20T05:36:49.652Z,100.00
2022-08-20T05:39:19.656Z,100.00
2022-08-20T05:41:49.609Z,100.00
2022-08-20T05:44:18.461Z,100.00
2022-08-20T05:46:47.508Z,100.00
2022-08-20T05:49:21.690Z,100.00
2022-08-20T05:51:51.409Z,100.00
2022-08-20T05:54:18.934Z,100.00
2022-08-20T05:56:46.309Z,100.00
2022-08-20T05:59:14.171Z,100.00
2022-08-20T06:01:43.155Z,100.00
2022-08-20T06:04:28.550Z,100.00
2022-08-20T06:07:06.872Z,100.00
2022-08-20T06:09:36.370Z,100.00
2022-08-20T06:12:09.001Z,100.00
2022-08-20T06:14:36.660Z,100.00
2022-08-20T06:17:15.971Z,100.00
2022-08-20T06:19:46.869Z,100.00
2022-08-20T06:22:18.186Z,100.00
2022-08-20T06:24:50.509Z,100.00
2022-08-20T06:27:18.569Z,100.00
2022-08-20T06:29:46.192Z,100.00
2022-08-20T06:32:14.238Z,100.00
2022-08-20T06:34:50.972Z,100.00
2022-08-20T06:37:31.702Z,100.00
2022-08-20T06:40:13.364Z,92.17
2022-08-20T06:42:47.797Z,83.54
2022-08-20T06:45:24.546Z,82.25
2022-08-20T06:47:54.129Z,67.93
2022-08-20T06:50:43.159Z,57.63
2022-08-20T06:53:19.254Z,56.65
2022-08-20T06:55:51.797Z,56.02
2022-08-20T06:58:37.038Z,54.78
2022-08-20T07:01:11.348Z,53.33
2022-08-20T07:03:42.331Z,56.56
2022-08-20T07:06:26.068Z,58.76
2022-08-20T07:08:55.393Z,62.34
2022-08-20T07:11:27.797Z,63.01
2022-08-20T07:13:58.390Z,65.78
2022-08-20T07:16:27.310Z,70.65
2022-08-20T07:18:54.709Z,72.03
2022-08-20T07:21:22.106Z,75.11
2022-08-20T07:23:49.600Z,75.11
2022-08-20T07:26:18.256Z,67.36
2022-08-20T07:28:46.945Z,60.74
2022-08-20T07:31:34.984Z,56.95
2022-08-20T07:34:04.020Z,54.32
2022-08-20T07:36:32.875Z,52.66
2022-08-20T07:39:05.927Z,47.66
2022-08-20T07:41:34.346Z,49.10
2022-08-20T07:44:01.698Z,53.98
2022-08-20T07:46:31.285Z,58.41
2022-08-20T07:48:59.770Z,64.98
2022-08-20T07:51:27.639Z,64.78
2022-08-20T07:53:55.115Z,55.99
2022-08-20T07:56:24.534Z,49.46
2022-08-20T07:58:55.686Z,42.89
2022-08-20T08:01:31.609Z,42.68
2022-08-20T08:04:00.749Z,41.30
2022-08-20T08:06:31.390Z,40.09
2022-08-20T08:09:09.950Z,40.54
2022-08-20T08:11:47.227Z,46.50
2022-08-20T08:14:23.666Z,47.46
2022-08-20T08:16:53.236Z,51.13
2022-08-20T08:19:20.745Z,54.58
2022-08-20T08:21:48.251Z,54.10
2022-08-20T08:24:21.026Z,55.09
2022-08-20T08:26:50.364Z,53.08
2022-08-20T08:29:18.143Z,53.96
2022-08-20T08:31:45.588Z,59.06
2022-08-20T08:34:13.584Z,64.27
2022-08-20T08:36:44.283Z,68.28
2022-08-20T08:39:11.799Z,69.58
2022-08-20T08:41:50.190Z,74.86
2022-08-20T08:44:27.181Z,77.20
2022-08-20T08:47:00.897Z,77.75
2022-08-20T08:49:37.415Z,81.20
2022-08-20T08:52:14.806Z,82.90
2022-08-20T08:54:50.175Z,77.90
2022-08-20T08:57:18.827Z,77.84
2022-08-20T09:00:13.656Z,75.60
2022-08-20T09:02:53.497Z,73.15
2022-08-20T09:05:23.527Z,70.04
2022-08-20T09:07:54.312Z,66.62
2022-08-20T09:10:23.057Z,68.59
2022-08-20T09:12:52.500Z,70.28
2022-08-20T09:15:21.600Z,71.41
2022-08-20T09:17:49.315Z,74.58
2022-08-20T09:20:18.340Z,78.33
2022-08-20T09:22:45.558Z,79.41
2022-08-20T09:25:13.442Z,81.79
2022-08-20T09:27:41.501Z,84.21
2022-08-20T09:30:12.138Z,83.66
2022-08-20T09:32:42.197Z,86.45
2022-08-20T09:35:10.620Z,90.69
2022-08-20T09:37:38.115Z,93.61
2022-08-20T09:40:08.806Z,97.04
2022-08-20T09:42:41.376Z,95.71
2022-08-20T09:45:11.425Z,96.21
2022-08-20T09:47:41.696Z,98.56
2022-08-20T09:50:24.202Z,99.46
2022-08-20T09:52:54.347Z,100.00
2022-08-20T09:55:30.809Z,99.91
2022-08-20T09:57:59.208Z,100.00
2022-08-20T10:00:26.762Z,100.00
2022-08-20T10:02:54.109Z,100.00
2022-08-20T10:05:21.487Z,100.00
2022-08-20T10:07:50.098Z,99.80
2022-08-20T10:10:17.464Z,99.20
2022-08-20T10:12:46.066Z,100.00
2022-08-20T10:15:13.941Z,100.00
2022-08-20T10:17:43.365Z,100.00
2022-08-20T10:20:14.723Z,98.79
2022-08-20T10:22:42.918Z,98.33
2022-08-20T10:25:11.142Z,96.56
2022-08-20T10:27:40.848Z,97.38
2022-08-20T10:30:09.127Z,100.00
2022-08-20T10:32:36.544Z,100.00
2022-08-20T10:35:04.787Z,100.00
2022-08-20T10:37:32.209Z,100.00
2022-08-20T10:39:59.524Z,100.00
2022-08-20T10:42:27.019Z,100.00
2022-08-20T10:44:54.439Z,100.00
2022-08-20T10:47:29.367Z,100.00
2022-08-20T10:50:00.316Z,100.00
2022-08-20T10:52:28.958Z,100.00
2022-08-20T10:54:56.573Z,100.00
2022-08-20T10:57:27.998Z,100.00
2022-08-20T10:59:57.974Z,100.00
2022-08-20T11:02:26.712Z,100.00
2022-08-20T11:04:54.432Z,100.00
2022-08-20T11:07:55.376Z,100.00
2022-08-20T11:10:22.281Z,100.00
2022-08-20T11:12:49.662Z,100.00
2022-08-20T11:15:17.282Z,100.00
2022-08-20T11:17:45.787Z,100.00
2022-08-20T11:20:17.038Z,100.00
2022-08-20T11:22:44.401Z,100.00
2022-08-20T11:25:12.091Z,100.00
2022-08-20T11:27:45.193Z,100.00
2022-08-20T11:30:19.677Z,100.00
2022-08-20T11:32:47.043Z,100.00
2022-08-20T11:35:41.031Z,100.00
2022-08-20T11:38:03.049Z,100.00
2022-08-20T11:40:31.772Z,100.00
2022-08-20T11:43:14.120Z,100.00
2022-08-20T11:45:44.572Z,100.00
2022-08-20T11:48:12.066Z,100.00
2022-08-20T11:50:39.411Z,100.00
2022-08-20T11:53:07.943Z,100.00
2022-08-20T11:55:36.589Z,100.00
2022-08-20T11:58:04.597Z,100.00
2022-08-20T12:00:34.155Z,100.00
2022-08-20T12:03:04.998Z,100.00
2022-08-20T12:05:33.213Z,100.00
2022-08-20T12:08:04.521Z,100.00
2022-08-20T12:10:32.190Z,100.00
2022-08-20T12:12:59.786Z,100.00
2022-08-20T12:15:27.772Z,100.00
2022-08-20T12:17:55.618Z,98.41
2022-08-20T12:20:24.378Z,96.38
2022-08-20T12:22:52.763Z,95.21
2022-08-20T12:25:20.935Z,91.70
2022-08-20T12:27:48.479Z,91.03
2022-08-20T12:30:20.178Z,94.53
2022-08-20T12:32:48.313Z,99.75
2022-08-20T12:35:18.382Z,100.00
2022-08-20T12:37:47.304Z,100.00
2022-08-20T12:40:24.563Z,100.00
2022-08-20T12:43:01.838Z,100.00
2022-08-20T12:45:31.103Z,100.00
2022-08-20T12:48:06.667Z,100.00
2022-08-20T12:50:36.309Z,100.00
2022-08-20T12:53:04.932Z,100.00
2022-08-20T12:55:32.735Z,100.00
2022-08-20T12:58:03.685Z,100.00
2022-08-20T13:00:39.121Z,100.00
2022-08-20T13:03:12.805Z,100.00
2022-08-20T13:05:41.219Z,100.00
2022-08-20T13:08:11.862Z,100.00
2022-08-20T13:10:44.713Z,100.00
2022-08-20T13:13:15.074Z,100.00
2022-08-20T13:15:45.029Z,100.00
2022-08-20T13:18:12.405Z,100.00
2022-08-20T13:20:39.727Z,100.00
2022-08-20T13:23:07.126Z,100.00
2022-08-20T13:25:34.970Z,100.00
2022-08-20T13:28:05.178Z,100.00
2022-08-20T13:30:34.859Z,100.00
2022-08-20T13:33:02.751Z,100.00
2022-08-20T13:35:30.632Z,100.00
2022-08-20T13:37:58.198Z,100.00
2022-08-20T13:40:26.124Z,100.00
2022-08-20T13:42:53.817Z,100.00
2022-08-20T13:45:21.460Z,100.00
2022-08-20T13:47:54.303Z,100.00
2022-08-20T13:50:24.759Z,100.00
2022-08-20T13:52:52.380Z,100.00
2022-08-20T13:55:23.139Z,100.00
2022-08-20T13:57:51.809Z,100.00
2022-08-20T14:00:31.887Z,100.00
2022-08-20T14:03:04.661Z,100.00
2022-08-20T14:05:33.946Z,100.00
2022-08-20T14:08:18.787Z,100.00
2022-08-20T14:10:51.342Z,100.00
2022-08-20T14:13:22.784Z,100.00
2022-08-20T14:15:51.126Z,100.00
2022-08-20T14:18:19.518Z,100.00
2022-08-20T14:20:47.271Z,100.00
2022-08-20T14:23:15.854Z,100.00
2022-08-20T14:25:47.495Z,100.00
2022-08-20T14:28:24.190Z,100.00
2022-08-20T14:30:53.302Z,100.00
2022-08-20T14:33:23.264Z,100.00
2022-08-20T14:35:51.163Z,100.00
2022-08-20T14:38:18.925Z,100.00
2022-08-20T14:40:46.785Z,100.00
2022-08-20T14:43:14.327Z,100.00
2022-08-20T14:45:41.706Z,100.00
2022-08-20T14:48:09.537Z,100.00
2022-08-20T14:50:38.372Z,100.00
2022-08-20T14:53:06.537Z,100.00
2022-08-20T14:55:37.731Z,100.00
2022-08-20T14:58:14.997Z,100.00
2022-08-20T15:00:43.341Z,100.00
2022-08-20T15:03:11.171Z,100.00
2022-08-20T15:05:39.567Z,100.00
2022-08-20T15:08:08.351Z,100.00
2022-08-20T15:10:38.938Z,100.00
2022-08-20T15:13:07.039Z,100.00
2022-08-20T15:15:35.107Z,100.00
2022-08-20T15:18:02.404Z,100.00
2022-08-20T15:20:32.984Z,100.00
2022-08-20T15:23:02.308Z,100.00
2022-08-20T15:25:36.893Z,100.00
2022-08-20T15:28:08.751Z,100.00
2022-08-20T15:30:39.821Z,100.00
2022-08-20T15:33:08.878Z,100.00
2022-08-20T15:35:36.786Z,100.00
2022-08-20T15:38:04.542Z,100.00
2022-08-20T15:40:33.481Z,100.00
2022-08-20T15:43:03.974Z,100.00
2022-08-20T15:45:32.958Z,100.00
2022-08-20T15:48:31.490Z,100.00
2022-08-20T15:51:28.819Z,100.00
2022-08-20T15:54:13.673Z,100.00
2022-08-20T15:57:03.227Z,100.00
2022-08-20T16:00:07.403Z,100.00
2022-08-20T16:03:16.241Z,100.00
2022-08-20T16:06:17.038Z,100.00
2022-08-20T16:09:15.068Z,100.00
2022-08-20T16:12:14.377Z,100.00
2022-08-20T16:14:46.156Z,100.00
2022-08-20T16:17:28.899Z,100.00
2022-08-20T16:20:10.117Z,100.00
2022-08-20T16:22:43.995Z,100.00
2022-08-20T16:25:13.626Z,100.00
2022-08-20T16:28:14.100Z,100.00
2022-08-20T16:30:49.638Z,100.00
2022-08-20T16:33:31.640Z,100.00
2022-08-20T16:36:46.676Z,100.00
2022-08-20T16:39:39.526Z,100.00
2022-08-20T16:42:10.646Z,100.00
2022-08-20T16:44:45.139Z,100.00
2022-08-20T16:47:35.818Z,100.00
2022-08-20T16:50:11.888Z,100.00
2022-08-20T16:52:44.957Z,100.00
2022-08-20T16:55:14.146Z,100.00
2022-08-20T16:57:41.603Z,100.00
2022-08-20T17:00:35.806Z,100.00
2022-08-20T17:03:33.598Z,100.00
2022-08-20T17:06:35.385Z,100.00
2022-08-20T17:09:11.176Z,100.00
2022-08-20T17:11:39.455Z,100.00
2022-08-20T17:14:18.466Z,100.00
2022-08-20T17:16:53.013Z,100.00
2022-08-20T17:19:31.604Z,100.00
2022-08-20T17:22:12.292Z,100.00
2022-08-20T17:24:40.476Z,100.00
2022-08-20T17:27:16.190Z,100.00
2022-08-20T17:29:54.359Z,100.00
2022-08-20T17:32:29.343Z,100.00
2022-08-20T17:35:01.643Z,100.00
2022-08-20T17:37:40.582Z,100.00
2022-08-20T17:40:18.521Z,100.00
2022-08-20T17:43:01.503Z,100.00
2022-08-20T17:45:37.740Z,100.00
2022-08-20T17:48:14.398Z,100.00
2022-08-20T17:50:44.815Z,100.00
2022-08-20T17:53:31.769Z,100.00
2022-08-20T17:56:04.708Z,100.00
2022-08-20T17:58:56.518Z,100.00
2022-08-20T18:01:26.048Z,100.00
2022-08-20T18:03:54.124Z,100.00
2022-08-20T18:06:34.751Z,100.00
2022-08-20T18:09:25.255Z,100.00
2022-08-20T18:12:07.471Z,100.00
2022-08-20T18:15:23.649Z,100.00
2022-08-20T18:18:28.025Z,100.00
2022-08-20T18:21:36.585Z,100.00
2022-08-20T18:24:14.053Z,100.00
2022-08-20T18:27:08.955Z,100.00
2022-08-20T18:29:41.833Z,100.00
2022-08-20T18:32:33.237Z,100.00
2022-08-20T18:35:12.623Z,100.00
2022-08-20T18:37:40.608Z,100.00
2022-08-20T18:40:29.337Z,100.00
2022-08-20T18:42:59.622Z,100.00
2022-08-20T18:45:34.132Z,100.00
2022-08-20T18:48:05.056Z,100.00
2022-08-20T18:50:46.331Z,100.00
2022-08-20T18:53:13.515Z,100.00
2022-08-20T18:56:00.104Z,100.00
2022-08-20T18:59:11.915Z,100.00
2022-08-20T19:01:42.549Z,100.00
2022-08-20T19:04:32.088Z,100.00
2022-08-20T19:07:06.316Z,100.00
2022-08-20T19:10:09.416Z,100.00
2022-08-20T19:13:04.985Z,100.00
2022-08-20T19:15:36.531Z,100.00
2022-08-20T19:18:13.235Z,100.00
2022-08-20T19:20:59.560Z,100.00
2022-08-20T19:23:31.607Z,100.00
2022-08-20T19:26:03.873Z,100.00
2022-08-20T19:28:53.819Z,100.00
2022-08-20T19:31:32.499Z,100.00
2022-08-20T19:34:20.247Z,100.00
2022-08-20T19:37:10.102Z,100.00
2022-08-20T19:39:51.351Z,100.00
2022-08-20T19:42:40.555Z,100.00
2022-08-20T19:45:41.767Z,100.00
2022-08-20T19:48:27.227Z,100.00
2022-08-20T19:51:34.534Z,100.00
2022-08-20T19:54:08.081Z,100.00
2022-08-20T19:56:41.196Z,100.00
2022-08-20T19:59:16.233Z,100.00
2022-08-20T20:02:00.230Z,100.00
2022-08-20T20:04:36.434Z,100.00
2022-08-20T20:07:39.809Z,100.00
2022-08-20T20:10:19.872Z,100.00
2022-08-20T20:12:48.300Z,100.00
2022-08-20T20:15:17.781Z,100.00
2022-08-20T20:17:45.980Z,100.00
2022-08-20T20:20:25.351Z,100.00
2022-08-20T20:23:04.448Z,100.00
2022-08-20T20:25:34.200Z,100.00
2022-08-20T20:28:28.767Z,100.00
2022-08-20T20:31:12.196Z,100.00
2022-08-20T20:33:44.253Z,100.00
2022-08-20T20:36:18.627Z,100.00
2022-08-20T20:39:00.286Z,100.00
2022-08-20T20:41:29.725Z,100.00
2022-08-20T20:44:06.941Z,100.00
2022-08-20T20:46:38.653Z,100.00
2022-08-20T20:49:08.978Z,100.00
2022-08-20T20:51:41.246Z,100.00
2022-08-20T20:54:40.690Z,100.00
2022-08-20T20:57:35.335Z,100.00
2022-08-20T21:00:12.592Z,100.00
2022-08-20T21:02:40.063Z,100.00
2022-08-20T21:05:07.920Z,100.00
2022-08-20T21:07:44.373Z,100.00
2022-08-20T21:10:11.778Z,100.00
2022-08-20T21:12:39.138Z,100.00
2022-08-20T21:15:07.322Z,100.00
2022-08-20T21:17:35.229Z,100.00
2022-08-20T21:20:05.770Z,100.00
2022-08-20T21:22:33.279Z,100.00
2022-08-20T21:25:00.721Z,100.00
2022-08-20T21:27:28.684Z,100.00
2022-08-20T21:29:56.802Z,100.00
2022-08-20T21:32:24.841Z,100.00
2022-08-20T21:34:52.280Z,100.00
2022-08-20T21:37:19.500Z,100.00
2022-08-20T21:39:46.925Z,100.00
2022-08-20T21:42:29.080Z,100.00
2022-08-20T21:44:58.781Z,100.00
2022-08-20T21:47:27.569Z,100.00
2022-08-20T21:49:54.817Z,100.00
2022-08-20T21:52:22.217Z,100.00
2022-08-20T21:54:49.512Z,100.00
2022-08-20T21:57:27.738Z,100.00
2022-08-20T21:59:57.323Z,100.00
2022-08-20T22:02:26.040Z,100.00
2022-08-20T22:04:54.598Z,100.00
2022-08-20T22:07:22.209Z,100.00
2022-08-20T22:09:49.704Z,100.00
2022-08-20T22:12:23.133Z,100.00
2022-08-20T22:14:51.329Z,100.00
2022-08-20T22:17:18.870Z,100.00
2022-08-20T22:19:46.306Z,100.00
2022-08-20T22:22:15.671Z,100.00
2022-08-20T22:24:43.314Z,100.00
2022-08-20T22:27:10.681Z,100.00
2022-08-20T22:29:38.035Z,100.00
2022-08-20T22:32:06.468Z,100.00
2022-08-20T22:34:36.030Z,100.00
2022-08-20T22:37:04.171Z,100.00
2022-08-20T22:39:31.646Z,100.00
2022-08-20T22:41:59.210Z,100.00
2022-08-20T22:44:26.728Z,100.00
2022-08-20T22:46:59.019Z,100.00
2022-08-20T22:49:30.820Z,100.00
2022-08-20T22:51:58.886Z,100.00
2022-08-20T22:54:26.625Z,100.00
2022-08-20T22:56:55.126Z,100.00
2022-08-20T22:59:23.501Z,100.00
2022-08-20T23:01:52.553Z,100.00
2022-08-20T23:04:31.243Z,100.00
2022-08-20T23:07:00.657Z,100.00
2022-08-20T23:09:29.003Z,100.00
2022-08-20T23:11:57.646Z,100.00
2022-08-20T23:14:27.104Z,100.00
2022-08-20T23:17:13.656Z,100.00
2022-08-20T23:19:42.289Z,100.00
2022-08-20T23:22:09.859Z,100.00
2022-08-20T23:24:37.674Z,100.00
2022-08-20T23:27:07.445Z,100.00
2022-08-20T23:29:35.506Z,100.00
2022-08-20T23:32:03.255Z,100.00
2022-08-20T23:34:30.638Z,100.00
2022-08-20T23:36:59.845Z,100.00
2022-08-20T23:39:28.838Z,100.00
2022-08-20T23:41:57.708Z,100.00
2022-08-20T23:44:27.127Z,100.00
2022-08-20T23:46:58.524Z,100.00
2022-08-20T23:49:28.081Z,100.00
2022-08-20T23:51:55.872Z,100.00
2022-08-20T23:54:23.568Z,100.00
2022-08-20T23:56:51.217Z,100.00
2022-08-20T23:59:18.479Z,100.00
